sensor_id;sensor_type;location;lat;lon;timestamp;temperature;humidity
9762;DHT22;4920;49.594;11.022;2022-12-11T00:02:03;-0.40;99.90
9762;DHT22;4920;49.594;11.022;2022-12-11T00:04:32;-0.50;99.90
9762;DHT22;4920;49.594;11.022;2022-12-11T00:07:02;-0.40;99.90
9762;DHT22;4920;49.594;11.022;2022-12-11T00:09:30;-0.40;99.90
9762;DHT22;4920;49.594;11.022;2022-12-11T00:11:59;-0.50;99.90
9762;DHT22;4920;49.594;11.022;2022-12-11T00:14:29;-0.50;99.90
9762;DHT22;4920;49.594;11.022;2022-12-11T00:16:58;-0.50;99.90
9762;DHT22;4920;49.594;11.022;2022-12-11T00:19:26;-0.40;99.90
9762;DHT22;4920;49.594;11.022;2022-12-11T00:21:55;-0.40;99.90
9762;DHT22;4920;49.594;11.022;2022-12-11T00:24:25;-0.40;99.90
9762;DHT22;4920;49.594;11.022;2022-12-11T00:26:54;-0.40;99.90
9762;DHT22;4920;49.594;11.022;2022-12-11T00:29:23;-0.40;99.90
9762;DHT22;4920;49.594;11.022;2022-12-11T00:31:51;-0.30;99.90
9762;DHT22;4920;49.594;11.022;2022-12-11T00:34:20;-0.30;99.90
9762;DHT22;4920;49.594;11.022;2022-12-11T00:36:49;-0.30;99.90
9762;DHT22;4920;49.594;11.022;2022-12-11T00:39:18;-0.30;99.90
9762;DHT22;4920;49.594;11.022;2022-12-11T00:41:48;-0.30;99.90
9762;DHT22;4920;49.594;11.022;2022-12-11T00:44:17;-0.30;99.90
9762;DHT22;4920;49.594;11.022;2022-12-11T00:46:45;-0.30;99.90
9762;DHT22;4920;49.594;11.022;2022-12-11T00:49:14;-0.30;99.90
9762;DHT22;4920;49.594;11.022;2022-12-11T00:51:43;-0.30;99.90
9762;DHT22;4920;49.594;11.022;2022-12-11T00:54:11;-0.30;99.90
9762;DHT22;4920;49.594;11.022;2022-12-11T00:56:41;-0.40;99.90
9762;DHT22;4920;49.594;11.022;2022-12-11T00:59:11;-0.50;99.90
9762;DHT22;4920;49.594;11.022;2022-12-11T01:01:40;-0.50;99.90
9762;DHT22;4920;49.594;11.022;2022-12-11T01:04:09;-0.60;99.90
9762;DHT22;4920;49.594;11.022;2022-12-11T01:06:38;-0.60;99.90
9762;DHT22;4920;49.594;11.022;2022-12-11T01:09:07;-0.70;99.90
9762;DHT22;4920;49.594;11.022;2022-12-11T01:11:53;-0.70;99.90
9762;DHT22;4920;49.594;11.022;2022-12-11T01:14:23;-0.70;99.90
9762;DHT22;4920;49.594;11.022;2022-12-11T01:16:52;-0.70;99.90
9762;DHT22;4920;49.594;11.022;2022-12-11T01:19:21;-0.70;99.90
9762;DHT22;4920;49.594;11.022;2022-12-11T01:21:49;-0.70;99.90
9762;DHT22;4920;49.594;11.022;2022-12-11T01:24:18;-0.70;99.90
9762;DHT22;4920;49.594;11.022;2022-12-11T01:26:47;-0.70;99.90
9762;DHT22;4920;49.594;11.022;2022-12-11T01:29:16;-0.70;99.90
9762;DHT22;4920;49.594;11.022;2022-12-11T01:31:46;-0.70;99.90
9762;DHT22;4920;49.594;11.022;2022-12-11T01:34:14;-0.70;99.90
9762;DHT22;4920;49.594;11.022;2022-12-11T01:36:43;-0.70;99.90
9762;DHT22;4920;49.594;11.022;2022-12-11T01:39:12;-0.70;99.90
9762;DHT22;4920;49.594;11.022;2022-12-11T01:41:41;-0.80;99.90
9762;DHT22;4920;49.594;11.022;2022-12-11T01:47:21;-0.80;99.90
9762;DHT22;4920;49.594;11.022;2022-12-11T01:49:50;-0.80;99.90
9762;DHT22;4920;49.594;11.022;2022-12-11T01:52:20;-0.80;99.90
9762;DHT22;4920;49.594;11.022;2022-12-11T01:54:50;-0.70;99.90
9762;DHT22;4920;49.594;11.022;2022-12-11T01:57:19;-0.70;99.90
9762;DHT22;4920;49.594;11.022;2022-12-11T01:59:48;-0.70;99.90
9762;DHT22;4920;49.594;11.022;2022-12-11T02:02:19;-0.70;99.90
9762;DHT22;4920;49.594;11.022;2022-12-11T02:04:50;-0.80;99.90
9762;DHT22;4920;49.594;11.022;2022-12-11T02:07:19;-0.70;99.90
9762;DHT22;4920;49.594;11.022;2022-12-11T02:09:47;-0.70;99.90
9762;DHT22;4920;49.594;11.022;2022-12-11T02:12:23;-0.70;99.90
9762;DHT22;4920;49.594;11.022;2022-12-11T02:15:01;-0.60;99.90
9762;DHT22;4920;49.594;11.022;2022-12-11T02:17:34;-0.60;99.90
9762;DHT22;4920;49.594;11.022;2022-12-11T02:20:14;-0.60;99.90
9762;DHT22;4920;49.594;11.022;2022-12-11T02:22:57;-0.60;99.90
9762;DHT22;4920;49.594;11.022;2022-12-11T02:25:31;-0.50;99.90
9762;DHT22;4920;49.594;11.022;2022-12-11T02:28:11;-0.50;99.90
9762;DHT22;4920;49.594;11.022;2022-12-11T02:30:46;-0.40;99.90
9762;DHT22;4920;49.594;11.022;2022-12-11T02:33:17;-0.40;99.90
9762;DHT22;4920;49.594;11.022;2022-12-11T02:35:49;-0.30;99.90
9762;DHT22;4920;49.594;11.022;2022-12-11T02:38:21;-0.30;99.90
9762;DHT22;4920;49.594;11.022;2022-12-11T02:40:55;-0.30;99.90
9762;DHT22;4920;49.594;11.022;2022-12-11T02:43:29;-0.30;99.90
9762;DHT22;4920;49.594;11.022;2022-12-11T02:45:59;-0.30;99.90
9762;DHT22;4920;49.594;11.022;2022-12-11T02:48:31;-0.30;99.90
9762;DHT22;4920;49.594;11.022;2022-12-11T02:51:02;-0.30;99.90
9762;DHT22;4920;49.594;11.022;2022-12-11T02:53:36;-0.30;99.90
9762;DHT22;4920;49.594;11.022;2022-12-11T02:56:10;-0.30;99.90
9762;DHT22;4920;49.594;11.022;2022-12-11T02:58:44;-0.30;99.90
9762;DHT22;4920;49.594;11.022;2022-12-11T03:01:14;-0.30;99.90
9762;DHT22;4920;49.594;11.022;2022-12-11T03:03:45;-0.40;99.90
9762;DHT22;4920;49.594;11.022;2022-12-11T03:06:17;-0.30;99.90
9762;DHT22;4920;49.594;11.022;2022-12-11T03:08:47;-0.30;99.90
9762;DHT22;4920;49.594;11.022;2022-12-11T03:11:21;-0.30;99.90
9762;DHT22;4920;49.594;11.022;2022-12-11T03:13:51;-0.40;99.90
9762;DHT22;4920;49.594;11.022;2022-12-11T03:16:29;-0.30;99.90
9762;DHT22;4920;49.594;11.022;2022-12-11T03:19:07;-0.40;99.90
9762;DHT22;4920;49.594;11.022;2022-12-11T03:21:42;-0.40;99.90
9762;DHT22;4920;49.594;11.022;2022-12-11T03:24:16;-0.40;99.90
9762;DHT22;4920;49.594;11.022;2022-12-11T03:26:52;-0.40;99.90
9762;DHT22;4920;49.594;11.022;2022-12-11T03:29:28;-0.40;99.90
9762;DHT22;4920;49.594;11.022;2022-12-11T03:32:01;-0.40;99.90
9762;DHT22;4920;49.594;11.022;2022-12-11T03:34:37;-0.40;99.90
9762;DHT22;4920;49.594;11.022;2022-12-11T03:37:09;-0.30;99.90
9762;DHT22;4920;49.594;11.022;2022-12-11T03:39:43;-0.30;99.90
9762;DHT22;4920;49.594;11.022;2022-12-11T03:42:15;-0.30;99.90
9762;DHT22;4920;49.594;11.022;2022-12-11T03:44:48;-0.30;99.90
9762;DHT22;4920;49.594;11.022;2022-12-11T03:47:21;-0.30;99.90
9762;DHT22;4920;49.594;11.022;2022-12-11T03:49:51;-0.30;99.90
9762;DHT22;4920;49.594;11.022;2022-12-11T03:52:22;-0.30;99.90
9762;DHT22;4920;49.594;11.022;2022-12-11T03:54:54;-0.30;99.90
9762;DHT22;4920;49.594;11.022;2022-12-11T03:57:30;-0.30;99.90
9762;DHT22;4920;49.594;11.022;2022-12-11T04:00:01;-0.30;99.90
9762;DHT22;4920;49.594;11.022;2022-12-11T04:02:37;-0.30;99.90
9762;DHT22;4920;49.594;11.022;2022-12-11T04:05:07;-0.30;99.90
9762;DHT22;4920;49.594;11.022;2022-12-11T04:07:36;-0.30;99.90
9762;DHT22;4920;49.594;11.022;2022-12-11T04:10:05;-0.30;99.90
9762;DHT22;4920;49.594;11.022;2022-12-11T04:12:34;-0.30;99.90
9762;DHT22;4920;49.594;11.022;2022-12-11T04:15:05;-0.30;99.90
9762;DHT22;4920;49.594;11.022;2022-12-11T04:17:35;-0.30;99.90
9762;DHT22;4920;49.594;11.022;2022-12-11T04:20:20;-0.30;99.90
9762;DHT22;4920;49.594;11.022;2022-12-11T04:23:18;-0.30;99.90
9762;DHT22;4920;49.594;11.022;2022-12-11T04:26:05;-0.30;99.90
9762;DHT22;4920;49.594;11.022;2022-12-11T04:28:35;-0.30;99.90
9762;DHT22;4920;49.594;11.022;2022-12-11T04:31:05;-0.30;99.90
9762;DHT22;4920;49.594;11.022;2022-12-11T04:33:34;-0.30;99.90
9762;DHT22;4920;49.594;11.022;2022-12-11T04:36:03;-0.30;99.90
9762;DHT22;4920;49.594;11.022;2022-12-11T04:38:32;-0.30;99.90
9762;DHT22;4920;49.594;11.022;2022-12-11T04:41:02;-0.30;99.90
9762;DHT22;4920;49.594;11.022;2022-12-11T04:43:31;-0.30;99.90
9762;DHT22;4920;49.594;11.022;2022-12-11T04:46:01;-0.30;99.90
9762;DHT22;4920;49.594;11.022;2022-12-11T04:48:31;-0.30;99.90
9762;DHT22;4920;49.594;11.022;2022-12-11T04:51:00;-0.30;99.90
9762;DHT22;4920;49.594;11.022;2022-12-11T04:53:29;-0.30;99.90
9762;DHT22;4920;49.594;11.022;2022-12-11T04:55:58;-0.30;99.90
9762;DHT22;4920;49.594;11.022;2022-12-11T04:58:27;-0.30;99.90
9762;DHT22;4920;49.594;11.022;2022-12-11T05:00:55;-0.30;99.90
9762;DHT22;4920;49.594;11.022;2022-12-11T05:03:24;-0.30;99.90
9762;DHT22;4920;49.594;11.022;2022-12-11T05:05:54;-0.30;99.90
9762;DHT22;4920;49.594;11.022;2022-12-11T05:08:23;-0.30;99.90
9762;DHT22;4920;49.594;11.022;2022-12-11T05:10:55;-0.40;99.90
9762;DHT22;4920;49.594;11.022;2022-12-11T05:13:26;-0.50;99.90
9762;DHT22;4920;49.594;11.022;2022-12-11T05:15:55;-0.60;99.90
9762;DHT22;4920;49.594;11.022;2022-12-11T05:18:25;-0.70;99.90
9762;DHT22;4920;49.594;11.022;2022-12-11T05:20:55;-0.70;99.90
9762;DHT22;4920;49.594;11.022;2022-12-11T05:23:24;-0.80;99.90
9762;DHT22;4920;49.594;11.022;2022-12-11T05:25:54;-0.80;99.90
9762;DHT22;4920;49.594;11.022;2022-12-11T05:28:24;-0.80;99.90
9762;DHT22;4920;49.594;11.022;2022-12-11T05:30:54;-0.80;99.90
9762;DHT22;4920;49.594;11.022;2022-12-11T05:33:24;-0.70;99.90
9762;DHT22;4920;49.594;11.022;2022-12-11T05:35:54;-0.70;99.90
9762;DHT22;4920;49.594;11.022;2022-12-11T05:38:23;-0.70;99.90
9762;DHT22;4920;49.594;11.022;2022-12-11T05:40:56;-0.60;99.90
9762;DHT22;4920;49.594;11.022;2022-12-11T05:43:27;-0.60;99.90
9762;DHT22;4920;49.594;11.022;2022-12-11T05:45:59;-0.60;99.90
9762;DHT22;4920;49.594;11.022;2022-12-11T05:48:32;-0.60;99.90
9762;DHT22;4920;49.594;11.022;2022-12-11T05:51:03;-0.50;99.90
9762;DHT22;4920;49.594;11.022;2022-12-11T05:53:32;-0.50;99.90
9762;DHT22;4920;49.594;11.022;2022-12-11T05:56:02;-0.50;99.90
9762;DHT22;4920;49.594;11.022;2022-12-11T05:58:32;-0.50;99.90
9762;DHT22;4920;49.594;11.022;2022-12-11T06:01:01;-0.50;99.90
9762;DHT22;4920;49.594;11.022;2022-12-11T06:03:30;-0.60;99.90
9762;DHT22;4920;49.594;11.022;2022-12-11T06:06:02;-0.60;99.90
9762;DHT22;4920;49.594;11.022;2022-12-11T06:08:31;-0.50;99.90
9762;DHT22;4920;49.594;11.022;2022-12-11T06:11:00;-0.50;99.90
9762;DHT22;4920;49.594;11.022;2022-12-11T06:13:29;-0.50;99.90
9762;DHT22;4920;49.594;11.022;2022-12-11T06:15:59;-0.50;99.90
9762;DHT22;4920;49.594;11.022;2022-12-11T06:18:30;-0.50;99.90
9762;DHT22;4920;49.594;11.022;2022-12-11T06:20:59;-0.50;99.90
9762;DHT22;4920;49.594;11.022;2022-12-11T06:23:29;-0.50;99.90
9762;DHT22;4920;49.594;11.022;2022-12-11T06:25:58;-0.50;99.90
9762;DHT22;4920;49.594;11.022;2022-12-11T06:28:26;-0.60;99.90
9762;DHT22;4920;49.594;11.022;2022-12-11T06:30:57;-0.60;99.90
9762;DHT22;4920;49.594;11.022;2022-12-11T06:33:26;-0.60;99.90
9762;DHT22;4920;49.594;11.022;2022-12-11T06:35:55;-0.60;99.90
9762;DHT22;4920;49.594;11.022;2022-12-11T06:38:24;-0.60;99.90
9762;DHT22;4920;49.594;11.022;2022-12-11T06:40:55;-0.60;99.90
9762;DHT22;4920;49.594;11.022;2022-12-11T06:43:24;-0.70;99.90
9762;DHT22;4920;49.594;11.022;2022-12-11T06:45:53;-0.70;99.90
9762;DHT22;4920;49.594;11.022;2022-12-11T06:48:29;-0.70;99.90
9762;DHT22;4920;49.594;11.022;2022-12-11T06:50:58;-0.70;99.90
9762;DHT22;4920;49.594;11.022;2022-12-11T06:53:27;-0.70;99.90
9762;DHT22;4920;49.594;11.022;2022-12-11T06:56:01;-0.60;99.90
9762;DHT22;4920;49.594;11.022;2022-12-11T06:58:30;-0.60;99.90
9762;DHT22;4920;49.594;11.022;2022-12-11T07:00:59;-0.60;99.90
9762;DHT22;4920;49.594;11.022;2022-12-11T07:03:28;-0.60;99.90
9762;DHT22;4920;49.594;11.022;2022-12-11T07:05:59;-0.60;99.90
9762;DHT22;4920;49.594;11.022;2022-12-11T07:08:29;-0.60;99.90
9762;DHT22;4920;49.594;11.022;2022-12-11T07:11:03;-0.70;99.90
9762;DHT22;4920;49.594;11.022;2022-12-11T07:13:32;-0.70;99.90
9762;DHT22;4920;49.594;11.022;2022-12-11T07:16:02;-0.70;99.90
9762;DHT22;4920;49.594;11.022;2022-12-11T07:18:31;-0.70;99.90
9762;DHT22;4920;49.594;11.022;2022-12-11T07:21:00;-0.70;99.90
9762;DHT22;4920;49.594;11.022;2022-12-11T07:23:29;-0.70;99.90
9762;DHT22;4920;49.594;11.022;2022-12-11T07:25:57;-0.70;99.90
9762;DHT22;4920;49.594;11.022;2022-12-11T07:28:27;-0.60;99.90
9762;DHT22;4920;49.594;11.022;2022-12-11T07:30:56;-0.60;99.90
9762;DHT22;4920;49.594;11.022;2022-12-11T07:33:25;-0.60;99.90
9762;DHT22;4920;49.594;11.022;2022-12-11T07:35:53;-0.50;99.90
9762;DHT22;4920;49.594;11.022;2022-12-11T07:38:22;-0.60;99.90
9762;DHT22;4920;49.594;11.022;2022-12-11T07:40:51;-0.60;99.90
9762;DHT22;4920;49.594;11.022;2022-12-11T07:43:20;-0.50;99.90
9762;DHT22;4920;49.594;11.022;2022-12-11T07:45:50;-0.50;99.90
9762;DHT22;4920;49.594;11.022;2022-12-11T07:48:19;-0.50;99.90
9762;DHT22;4920;49.594;11.022;2022-12-11T07:50:47;-0.50;99.90
9762;DHT22;4920;49.594;11.022;2022-12-11T07:53:16;-0.50;99.90
9762;DHT22;4920;49.594;11.022;2022-12-11T07:55:45;-0.50;99.90
9762;DHT22;4920;49.594;11.022;2022-12-11T07:58:14;-0.40;99.90
9762;DHT22;4920;49.594;11.022;2022-12-11T08:00:43;-0.40;99.90
9762;DHT22;4920;49.594;11.022;2022-12-11T08:03:13;-0.40;99.90
9762;DHT22;4920;49.594;11.022;2022-12-11T08:05:46;-0.30;99.90
9762;DHT22;4920;49.594;11.022;2022-12-11T08:08:16;-0.30;99.90
9762;DHT22;4920;49.594;11.022;2022-12-11T08:10:45;-0.20;99.90
9762;DHT22;4920;49.594;11.022;2022-12-11T08:13:13;-0.20;99.90
9762;DHT22;4920;49.594;11.022;2022-12-11T08:15:42;-0.20;99.90
9762;DHT22;4920;49.594;11.022;2022-12-11T08:18:14;-0.10;99.90
9762;DHT22;4920;49.594;11.022;2022-12-11T08:20:43;-0.10;99.90
9762;DHT22;4920;49.594;11.022;2022-12-11T08:23:11;-0.10;99.90
9762;DHT22;4920;49.594;11.022;2022-12-11T08:25:40;-0.10;99.90
9762;DHT22;4920;49.594;11.022;2022-12-11T08:28:09;-0.20;99.90
9762;DHT22;4920;49.594;11.022;2022-12-11T08:30:38;-0.20;99.90
9762;DHT22;4920;49.594;11.022;2022-12-11T08:33:07;-0.10;99.90
9762;DHT22;4920;49.594;11.022;2022-12-11T08:35:39;-0.10;99.90
9762;DHT22;4920;49.594;11.022;2022-12-11T08:38:07;0.10;99.90
9762;DHT22;4920;49.594;11.022;2022-12-11T08:40:36;0.20;99.90
9762;DHT22;4920;49.594;11.022;2022-12-11T08:43:05;0.40;99.90
9762;DHT22;4920;49.594;11.022;2022-12-11T08:45:33;0.40;99.90
9762;DHT22;4920;49.594;11.022;2022-12-11T08:48:02;0.50;99.90
9762;DHT22;4920;49.594;11.022;2022-12-11T08:50:31;0.60;99.90
9762;DHT22;4920;49.594;11.022;2022-12-11T08:53:01;0.60;99.90
9762;DHT22;4920;49.594;11.022;2022-12-11T08:55:31;0.80;99.90
9762;DHT22;4920;49.594;11.022;2022-12-11T08:58:00;0.80;99.90
9762;DHT22;4920;49.594;11.022;2022-12-11T09:00:29;0.90;99.90
9762;DHT22;4920;49.594;11.022;2022-12-11T09:02:58;1.00;99.90
9762;DHT22;4920;49.594;11.022;2022-12-11T09:05:27;1.00;99.90
9762;DHT22;4920;49.594;11.022;2022-12-11T09:07:57;0.90;99.90
9762;DHT22;4920;49.594;11.022;2022-12-11T09:10:27;0.90;99.90
9762;DHT22;4920;49.594;11.022;2022-12-11T09:12:56;0.70;99.90
9762;DHT22;4920;49.594;11.022;2022-12-11T09:15:24;0.70;99.90
9762;DHT22;4920;49.594;11.022;2022-12-11T09:17:53;0.60;99.90
9762;DHT22;4920;49.594;11.022;2022-12-11T09:20:22;0.60;99.90
9762;DHT22;4920;49.594;11.022;2022-12-11T09:22:51;0.50;99.90
9762;DHT22;4920;49.594;11.022;2022-12-11T09:25:19;0.60;99.90
9762;DHT22;4920;49.594;11.022;2022-12-11T09:27:49;0.60;99.90
9762;DHT22;4920;49.594;11.022;2022-12-11T09:30:18;0.60;99.90
9762;DHT22;4920;49.594;11.022;2022-12-11T09:32:47;0.60;99.90
9762;DHT22;4920;49.594;11.022;2022-12-11T09:35:15;0.70;99.90
9762;DHT22;4920;49.594;11.022;2022-12-11T09:37:44;0.80;99.90
9762;DHT22;4920;49.594;11.022;2022-12-11T09:40:13;0.80;99.90
9762;DHT22;4920;49.594;11.022;2022-12-11T09:42:52;0.80;99.90
9762;DHT22;4920;49.594;11.022;2022-12-11T09:45:21;0.80;99.90
9762;DHT22;4920;49.594;11.022;2022-12-11T09:47:52;0.90;99.90
9762;DHT22;4920;49.594;11.022;2022-12-11T09:50:24;1.00;99.90
9762;DHT22;4920;49.594;11.022;2022-12-11T09:53:01;1.00;99.90
9762;DHT22;4920;49.594;11.022;2022-12-11T09:55:35;1.00;99.90
9762;DHT22;4920;49.594;11.022;2022-12-11T09:58:15;1.10;99.90
9762;DHT22;4920;49.594;11.022;2022-12-11T10:00:52;1.00;99.90
9762;DHT22;4920;49.594;11.022;2022-12-11T10:03:42;0.90;99.90
9762;DHT22;4920;49.594;11.022;2022-12-11T10:06:18;1.00;99.90
9762;DHT22;4920;49.594;11.022;2022-12-11T10:08:57;1.10;99.90
9762;DHT22;4920;49.594;11.022;2022-12-11T10:11:45;1.10;99.90
9762;DHT22;4920;49.594;11.022;2022-12-11T10:14:35;1.00;99.90
9762;DHT22;4920;49.594;11.022;2022-12-11T10:17:10;0.90;99.90
9762;DHT22;4920;49.594;11.022;2022-12-11T10:19:41;0.80;99.90
9762;DHT22;4920;49.594;11.022;2022-12-11T10:22:16;0.70;99.90
9762;DHT22;4920;49.594;11.022;2022-12-11T10:24:50;0.60;99.90
9762;DHT22;4920;49.594;11.022;2022-12-11T10:27:39;0.50;99.90
9762;DHT22;4920;49.594;11.022;2022-12-11T10:30:15;0.50;99.90
9762;DHT22;4920;49.594;11.022;2022-12-11T10:32:51;0.30;99.90
9762;DHT22;4920;49.594;11.022;2022-12-11T10:35:30;0.30;99.90
9762;DHT22;4920;49.594;11.022;2022-12-11T10:38:10;0.20;99.90
9762;DHT22;4920;49.594;11.022;2022-12-11T10:40:44;0.20;99.90
9762;DHT22;4920;49.594;11.022;2022-12-11T10:43:13;0.20;99.90
9762;DHT22;4920;49.594;11.022;2022-12-11T10:45:51;0.20;99.90
9762;DHT22;4920;49.594;11.022;2022-12-11T10:48:20;0.30;99.90
9762;DHT22;4920;49.594;11.022;2022-12-11T10:50:59;0.40;99.90
9762;DHT22;4920;49.594;11.022;2022-12-11T10:53:29;0.50;99.90
9762;DHT22;4920;49.594;11.022;2022-12-11T10:55:59;0.60;99.90
9762;DHT22;4920;49.594;11.022;2022-12-11T10:58:30;0.60;99.90
9762;DHT22;4920;49.594;11.022;2022-12-11T11:01:12;0.70;99.90
9762;DHT22;4920;49.594;11.022;2022-12-11T11:03:52;0.80;99.90
9762;DHT22;4920;49.594;11.022;2022-12-11T11:06:22;0.80;99.90
9762;DHT22;4920;49.594;11.022;2022-12-11T11:08:53;0.90;99.90
9762;DHT22;4920;49.594;11.022;2022-12-11T11:11:25;0.90;99.90
9762;DHT22;4920;49.594;11.022;2022-12-11T11:14:06;0.90;99.90
9762;DHT22;4920;49.594;11.022;2022-12-11T11:16:38;0.90;99.90
9762;DHT22;4920;49.594;11.022;2022-12-11T11:19:17;0.80;99.90
9762;DHT22;4920;49.594;11.022;2022-12-11T11:21:52;0.80;99.90
9762;DHT22;4920;49.594;11.022;2022-12-11T11:24:26;0.80;99.90
9762;DHT22;4920;49.594;11.022;2022-12-11T11:26:56;0.90;99.90
9762;DHT22;4920;49.594;11.022;2022-12-11T11:29:41;0.80;99.90
9762;DHT22;4920;49.594;11.022;2022-12-11T11:32:21;0.80;99.90
9762;DHT22;4920;49.594;11.022;2022-12-11T11:34:51;0.70;99.90
9762;DHT22;4920;49.594;11.022;2022-12-11T11:37:29;0.70;99.90
9762;DHT22;4920;49.594;11.022;2022-12-11T11:40:07;0.60;99.90
9762;DHT22;4920;49.594;11.022;2022-12-11T11:42:44;0.60;99.90
9762;DHT22;4920;49.594;11.022;2022-12-11T11:45:18;0.40;99.90
9762;DHT22;4920;49.594;11.022;2022-12-11T11:47:57;0.30;99.90
9762;DHT22;4920;49.594;11.022;2022-12-11T11:50:35;0.30;99.90
9762;DHT22;4920;49.594;11.022;2022-12-11T11:53:06;0.30;99.90
9762;DHT22;4920;49.594;11.022;2022-12-11T11:55:44;0.30;99.90
9762;DHT22;4920;49.594;11.022;2022-12-11T11:58:16;0.30;99.90
9762;DHT22;4920;49.594;11.022;2022-12-11T12:00:49;0.40;99.90
9762;DHT22;4920;49.594;11.022;2022-12-11T12:03:23;0.60;99.90
9762;DHT22;4920;49.594;11.022;2022-12-11T12:05:55;0.80;99.90
9762;DHT22;4920;49.594;11.022;2022-12-11T12:08:37;1.00;99.90
9762;DHT22;4920;49.594;11.022;2022-12-11T12:11:16;1.20;99.90
9762;DHT22;4920;49.594;11.022;2022-12-11T12:13:57;1.30;99.90
9762;DHT22;4920;49.594;11.022;2022-12-11T12:16:38;1.40;99.90
9762;DHT22;4920;49.594;11.022;2022-12-11T12:19:48;1.40;99.90
9762;DHT22;4920;49.594;11.022;2022-12-11T12:22:30;1.60;99.90
9762;DHT22;4920;49.594;11.022;2022-12-11T12:25:13;2.10;99.90
9762;DHT22;4920;49.594;11.022;2022-12-11T12:27:48;2.50;99.90
9762;DHT22;4920;49.594;11.022;2022-12-11T12:30:20;2.90;99.90
9762;DHT22;4920;49.594;11.022;2022-12-11T12:33:04;3.10;99.90
9762;DHT22;4920;49.594;11.022;2022-12-11T12:35:47;3.00;99.90
9762;DHT22;4920;49.594;11.022;2022-12-11T12:38:22;2.80;99.90
9762;DHT22;4920;49.594;11.022;2022-12-11T12:40:59;2.60;99.90
9762;DHT22;4920;49.594;11.022;2022-12-11T12:43:49;2.50;99.90
9762;DHT22;4920;49.594;11.022;2022-12-11T12:46:27;2.40;99.90
9762;DHT22;4920;49.594;11.022;2022-12-11T12:48:58;2.30;99.90
9762;DHT22;4920;49.594;11.022;2022-12-11T12:51:29;2.20;99.90
9762;DHT22;4920;49.594;11.022;2022-12-11T12:54:00;2.00;99.90
9762;DHT22;4920;49.594;11.022;2022-12-11T12:56:38;2.00;99.90
9762;DHT22;4920;49.594;11.022;2022-12-11T12:59:19;1.70;99.90
9762;DHT22;4920;49.594;11.022;2022-12-11T13:01:50;1.60;99.90
9762;DHT22;4920;49.594;11.022;2022-12-11T13:04:34;1.60;99.90
9762;DHT22;4920;49.594;11.022;2022-12-11T13:07:27;1.60;99.90
9762;DHT22;4920;49.594;11.022;2022-12-11T13:09:59;1.70;99.90
9762;DHT22;4920;49.594;11.022;2022-12-11T13:12:40;1.90;99.90
9762;DHT22;4920;49.594;11.022;2022-12-11T13:15:29;2.00;99.90
9762;DHT22;4920;49.594;11.022;2022-12-11T13:18:00;2.20;99.90
9762;DHT22;4920;49.594;11.022;2022-12-11T13:20:31;2.50;99.90
9762;DHT22;4920;49.594;11.022;2022-12-11T13:23:18;2.70;99.90
9762;DHT22;4920;49.594;11.022;2022-12-11T13:25:52;2.80;99.90
9762;DHT22;4920;49.594;11.022;2022-12-11T13:28:27;2.80;99.90
9762;DHT22;4920;49.594;11.022;2022-12-11T13:31:04;2.70;99.90
9762;DHT22;4920;49.594;11.022;2022-12-11T13:33:42;2.50;99.90
9762;DHT22;4920;49.594;11.022;2022-12-11T13:36:25;2.40;99.90
9762;DHT22;4920;49.594;11.022;2022-12-11T13:38:59;2.10;99.90
9762;DHT22;4920;49.594;11.022;2022-12-11T13:41:29;1.90;99.90
9762;DHT22;4920;49.594;11.022;2022-12-11T13:44:00;1.80;99.90
9762;DHT22;4920;49.594;11.022;2022-12-11T13:46:34;1.50;99.90
9762;DHT22;4920;49.594;11.022;2022-12-11T13:49:05;1.20;99.90
9762;DHT22;4920;49.594;11.022;2022-12-11T13:51:34;1.00;99.90
9762;DHT22;4920;49.594;11.022;2022-12-11T13:54:13;0.80;99.90
9762;DHT22;4920;49.594;11.022;2022-12-11T13:56:54;0.70;99.90
9762;DHT22;4920;49.594;11.022;2022-12-11T13:59:27;0.60;99.90
9762;DHT22;4920;49.594;11.022;2022-12-11T14:01:59;0.50;99.90
9762;DHT22;4920;49.594;11.022;2022-12-11T14:04:29;0.40;99.90
9762;DHT22;4920;49.594;11.022;2022-12-11T14:07:00;0.30;99.90
9762;DHT22;4920;49.594;11.022;2022-12-11T14:09:31;0.30;99.90
9762;DHT22;4920;49.594;11.022;2022-12-11T14:11:59;0.30;99.90
9762;DHT22;4920;49.594;11.022;2022-12-11T14:14:37;0.30;99.90
9762;DHT22;4920;49.594;11.022;2022-12-11T14:17:21;0.30;99.90
9762;DHT22;4920;49.594;11.022;2022-12-11T14:19:57;0.20;99.90
9762;DHT22;4920;49.594;11.022;2022-12-11T14:22:27;0.20;99.90
9762;DHT22;4920;49.594;11.022;2022-12-11T14:25:17;0.20;99.90
9762;DHT22;4920;49.594;11.022;2022-12-11T14:27:51;0.30;99.90
9762;DHT22;4920;49.594;11.022;2022-12-11T14:30:22;0.40;99.90
9762;DHT22;4920;49.594;11.022;2022-12-11T14:32:54;0.50;99.90
9762;DHT22;4920;49.594;11.022;2022-12-11T14:35:27;0.50;99.90
9762;DHT22;4920;49.594;11.022;2022-12-11T14:38:12;0.50;99.90
9762;DHT22;4920;49.594;11.022;2022-12-11T14:40:50;0.50;99.90
9762;DHT22;4920;49.594;11.022;2022-12-11T14:43:23;0.50;99.90
9762;DHT22;4920;49.594;11.022;2022-12-11T14:45:58;0.40;99.90
9762;DHT22;4920;49.594;11.022;2022-12-11T14:48:32;0.30;99.90
9762;DHT22;4920;49.594;11.022;2022-12-11T14:51:04;0.20;99.90
9762;DHT22;4920;49.594;11.022;2022-12-11T14:53:36;0.10;99.90
9762;DHT22;4920;49.594;11.022;2022-12-11T14:56:16;0.00;99.90
9762;DHT22;4920;49.594;11.022;2022-12-11T14:58:55;0.00;99.90
9762;DHT22;4920;49.594;11.022;2022-12-11T15:01:26;0.00;99.90
9762;DHT22;4920;49.594;11.022;2022-12-11T15:04:04;0.00;99.90
9762;DHT22;4920;49.594;11.022;2022-12-11T15:06:41;-0.10;99.90
9762;DHT22;4920;49.594;11.022;2022-12-11T15:09:17;-0.10;99.90
9762;DHT22;4920;49.594;11.022;2022-12-11T15:11:49;-0.20;99.90
9762;DHT22;4920;49.594;11.022;2022-12-11T15:14:19;-0.20;99.90
9762;DHT22;4920;49.594;11.022;2022-12-11T15:16:51;-0.20;99.90
9762;DHT22;4920;49.594;11.022;2022-12-11T15:19:24;-0.20;99.90
9762;DHT22;4920;49.594;11.022;2022-12-11T15:22:00;-0.20;99.90
9762;DHT22;4920;49.594;11.022;2022-12-11T15:24:35;-0.30;99.90
9762;DHT22;4920;49.594;11.022;2022-12-11T15:27:24;-0.20;99.90
9762;DHT22;4920;49.594;11.022;2022-12-11T15:29:54;-0.30;99.90
9762;DHT22;4920;49.594;11.022;2022-12-11T15:32:23;-0.30;99.90
9762;DHT22;4920;49.594;11.022;2022-12-11T15:34:53;-0.40;99.90
9762;DHT22;4920;49.594;11.022;2022-12-11T15:37:24;-0.50;99.90
9762;DHT22;4920;49.594;11.022;2022-12-11T15:39:55;-0.50;99.90
9762;DHT22;4920;49.594;11.022;2022-12-11T15:42:30;-0.60;99.90
9762;DHT22;4920;49.594;11.022;2022-12-11T15:44:59;-0.50;99.90
9762;DHT22;4920;49.594;11.022;2022-12-11T15:47:29;-0.60;99.90
9762;DHT22;4920;49.594;11.022;2022-12-11T15:50:06;-0.60;99.90
9762;DHT22;4920;49.594;11.022;2022-12-11T15:52:36;-0.60;99.90
9762;DHT22;4920;49.594;11.022;2022-12-11T15:55:05;-0.60;99.90
9762;DHT22;4920;49.594;11.022;2022-12-11T15:57:37;-0.60;99.90
9762;DHT22;4920;49.594;11.022;2022-12-11T16:00:13;-0.60;99.90
9762;DHT22;4920;49.594;11.022;2022-12-11T16:02:42;-0.70;99.90
9762;DHT22;4920;49.594;11.022;2022-12-11T16:05:11;-0.70;99.90
9762;DHT22;4920;49.594;11.022;2022-12-11T16:07:40;-0.70;99.90
9762;DHT22;4920;49.594;11.022;2022-12-11T16:10:14;-0.80;99.90
9762;DHT22;4920;49.594;11.022;2022-12-11T16:12:45;-0.90;99.90
9762;DHT22;4920;49.594;11.022;2022-12-11T16:15:15;-0.90;99.90
9762;DHT22;4920;49.594;11.022;2022-12-11T16:17:58;-1.00;99.90
9762;DHT22;4920;49.594;11.022;2022-12-11T16:20:27;-1.00;99.90
9762;DHT22;4920;49.594;11.022;2022-12-11T16:22:56;-1.10;99.90
9762;DHT22;4920;49.594;11.022;2022-12-11T16:25:25;-1.20;99.90
9762;DHT22;4920;49.594;11.022;2022-12-11T16:27:56;-1.20;99.90
9762;DHT22;4920;49.594;11.022;2022-12-11T16:30:27;-1.20;99.90